createdAt,value
2019-01-13T00:01:24.042Z,2.57
2019-01-13T00:06:42.323Z,2.51
2019-01-13T00:12:01.462Z,2.50
2019-01-13T00:17:19.796Z,2.59
2019-01-13T00:22:39.164Z,2.49
2019-01-13T00:27:57.954Z,2.53
2019-01-13T00:33:16.553Z,2.52
2019-01-13T00:38:35.345Z,2.52
2019-01-13T00:43:54.670Z,2.52
2019-01-13T00:49:13.671Z,2.42
2019-01-13T00:54:32.916Z,2.29
2019-01-13T00:59:52.021Z,2.36
2019-01-13T01:05:11.855Z,2.29
2019-01-13T01:10:31.272Z,2.29
2019-01-13T01:15:49.504Z,2.26
2019-01-13T01:21:08.457Z,2.29
2019-01-13T01:26:28.174Z,2.21
2019-01-13T01:31:47.186Z,2.16
2019-01-13T01:37:06.316Z,2.20
2019-01-13T01:42:24.768Z,2.06
2019-01-13T01:47:43.847Z,2.13
2019-01-13T01:53:02.709Z,2.16
2019-01-13T01:58:21.263Z,2.21
2019-01-13T02:03:39.852Z,2.19
2019-01-13T02:08:58.728Z,2.03
2019-01-13T02:14:18.111Z,2.09
2019-01-13T02:19:36.701Z,2.11
2019-01-13T02:24:55.165Z,2.09
2019-01-13T02:30:16.520Z,2.11
2019-01-13T02:35:34.826Z,1.98
2019-01-13T02:40:53.733Z,1.85
2019-01-13T02:46:13.238Z,1.94
2019-01-13T02:51:31.952Z,2.02
2019-01-13T02:56:50.265Z,1.97
2019-01-13T03:02:09.309Z,2.04
2019-01-13T03:07:28.593Z,2.06
2019-01-13T03:12:47.054Z,1.98
2019-01-13T03:18:06.686Z,2.05
2019-01-13T03:23:25.235Z,2.02
2019-01-13T03:28:44.156Z,1.99
2019-01-13T03:34:03.097Z,2.10
2019-01-13T03:39:21.425Z,2.01
2019-01-13T03:44:40.859Z,2.07
2019-01-13T03:49:59.395Z,2.04
2019-01-13T03:55:19.665Z,2.04
2019-01-13T04:00:37.835Z,1.99
2019-01-13T04:05:56.026Z,2.06
2019-01-13T04:11:14.597Z,2.04
2019-01-13T04:16:33.644Z,2.10
2019-01-13T04:21:51.989Z,2.03
2019-01-13T04:27:10.836Z,2.04
2019-01-13T04:32:30.866Z,2.02
2019-01-13T04:37:49.158Z,1.97
2019-01-13T04:43:07.320Z,2.06
2019-01-13T04:48:26.731Z,2.12
2019-01-13T04:53:45.399Z,2.06
2019-01-13T04:59:04.141Z,2.14
2019-01-13T05:04:23.297Z,2.09
2019-01-13T05:09:41.417Z,2.15
2019-01-13T05:14:59.903Z,2.16
2019-01-13T05:20:17.616Z,2.17
2019-01-13T05:25:34.789Z,2.21
2019-01-13T05:30:52.311Z,2.27
2019-01-13T05:36:09.700Z,2.20
2019-01-13T05:41:29.972Z,2.23
2019-01-13T05:46:49.174Z,2.26
2019-01-13T05:52:06.294Z,2.17
2019-01-13T05:57:24.174Z,2.18
2019-01-13T06:02:41.602Z,2.26
2019-01-13T06:07:59.599Z,2.15
2019-01-13T06:13:17.457Z,2.20
2019-01-13T06:18:34.947Z,2.30
2019-01-13T06:23:52.890Z,2.34
2019-01-13T06:29:10.766Z,2.37
2019-01-13T06:34:28.390Z,2.38
2019-01-13T06:39:46.675Z,2.37
2019-01-13T06:45:04.989Z,2.44
2019-01-13T06:50:22.902Z,2.48
2019-01-13T06:55:40.569Z,2.43
2019-01-13T07:00:57.999Z,2.47
2019-01-13T07:06:15.122Z,2.52
2019-01-13T07:11:33.025Z,2.57
2019-01-13T07:16:50.916Z,2.56
2019-01-13T07:22:08.270Z,2.48
2019-01-13T07:27:25.388Z,2.50
2019-01-13T07:32:43.015Z,2.55
2019-01-13T07:38:00.361Z,2.46
2019-01-13T07:43:18.245Z,2.58
2019-01-13T07:48:36.470Z,2.64
2019-01-13T07:53:53.860Z,2.67
2019-01-13T07:59:11.674Z,2.71
2019-01-13T08:04:29.935Z,2.75
2019-01-13T08:09:47.523Z,2.78
2019-01-13T08:15:05.339Z,2.80
2019-01-13T08:20:27.210Z,2.84
2019-01-13T08:25:45.178Z,2.96
2019-01-13T08:31:02.939Z,3.09
2019-01-13T08:36:20.330Z,3.24
2019-01-13T08:41:38.113Z,3.15
2019-01-13T08:46:56.293Z,3.21
2019-01-13T08:52:14.220Z,3.27
2019-01-13T08:57:31.811Z,3.19
2019-01-13T09:02:49.546Z,3.10
2019-01-13T09:08:07.318Z,3.21
2019-01-13T09:13:24.858Z,3.24
2019-01-13T09:18:42.650Z,3.27
2019-01-13T09:24:00.216Z,3.35
2019-01-13T09:29:17.889Z,3.53
2019-01-13T09:34:36.490Z,3.60
2019-01-13T09:39:54.081Z,3.68
2019-01-13T09:45:11.849Z,3.84
2019-01-13T09:50:30.174Z,3.80
2019-01-13T09:55:48.250Z,3.82
2019-01-13T10:01:06.100Z,3.96
2019-01-13T10:06:24.058Z,4.15
2019-01-13T10:11:42.190Z,4.09
2019-01-13T10:17:00.160Z,4.17
2019-01-13T10:22:18.103Z,4.03
2019-01-13T10:27:35.789Z,4.10
2019-01-13T10:32:55.180Z,4.19
2019-01-13T10:38:11.598Z,4.17
2019-01-13T10:43:28.834Z,4.18
2019-01-13T10:48:46.219Z,4.06
2019-01-13T10:54:09.112Z,3.92
2019-01-13T10:59:21.570Z,3.90
2019-01-13T11:04:38.878Z,3.93
2019-01-13T11:09:56.819Z,4.07
2019-01-13T11:15:21.249Z,4.17
2019-01-13T11:20:33.942Z,4.14
2019-01-13T11:25:51.871Z,4.12
2019-01-13T11:31:09.167Z,4.19
2019-01-13T11:36:26.859Z,4.25
2019-01-13T11:41:44.951Z,4.26
2019-01-13T11:47:02.659Z,4.38
2019-01-13T11:52:20.322Z,4.39
2019-01-13T11:57:38.713Z,4.41
2019-01-13T12:02:56.011Z,4.19
2019-01-13T12:08:15.621Z,4.32
2019-01-13T12:13:33.062Z,4.33
2019-01-13T12:18:51.128Z,4.20
2019-01-13T12:24:08.618Z,4.39
2019-01-13T12:29:26.847Z,4.46
2019-01-13T12:34:44.169Z,4.39
2019-01-13T12:40:03.082Z,4.45
2019-01-13T12:45:21.910Z,4.55
2019-01-13T12:50:40.916Z,4.25
2019-01-13T12:55:59.395Z,4.48
2019-01-13T13:01:16.624Z,4.59
2019-01-13T13:06:34.185Z,4.54
2019-01-13T13:11:52.096Z,4.49
2019-01-13T13:17:09.528Z,4.48
2019-01-13T13:22:28.200Z,4.37
2019-01-13T13:27:45.396Z,4.15
2019-01-13T13:33:03.266Z,4.14
2019-01-13T13:38:21.480Z,4.27
2019-01-13T13:43:37.889Z,4.32
2019-01-13T13:48:56.138Z,4.34
2019-01-13T13:54:14.442Z,4.40
2019-01-13T13:59:32.588Z,4.43
2019-01-13T14:04:50.694Z,4.52
2019-01-13T14:10:11.199Z,4.44
2019-01-13T14:15:30.444Z,4.53
2019-01-13T14:20:48.347Z,4.62
2019-01-13T14:26:06.646Z,4.64
2019-01-13T14:31:24.573Z,4.61
2019-01-13T14:36:43.556Z,4.62
2019-01-13T14:42:03.177Z,4.54
2019-01-13T14:47:21.269Z,4.44
2019-01-13T14:52:40.192Z,4.37
2019-01-13T14:57:58.304Z,4.31
2019-01-13T15:03:16.670Z,4.27
2019-01-13T15:08:35.845Z,4.25
2019-01-13T15:13:54.801Z,4.15
2019-01-13T15:19:12.784Z,4.10
2019-01-13T15:24:30.567Z,4.13
2019-01-13T15:29:49.487Z,3.96
2019-01-13T15:35:07.555Z,4.15
2019-01-13T15:40:25.630Z,4.25
2019-01-13T15:45:43.772Z,4.30
2019-01-13T15:51:02.114Z,4.30
2019-01-13T15:56:20.873Z,4.32
2019-01-13T16:01:38.161Z,4.38
2019-01-13T16:06:56.527Z,4.35
2019-01-13T16:12:14.783Z,4.43
2019-01-13T16:17:32.858Z,4.43
2019-01-13T16:22:50.826Z,4.49
2019-01-13T16:28:08.879Z,4.55
2019-01-13T16:33:26.959Z,4.58
2019-01-13T16:38:44.777Z,4.60
2019-01-13T16:44:02.263Z,4.61
2019-01-13T16:49:20.014Z,4.60
2019-01-13T16:54:37.792Z,4.61
2019-01-13T16:59:57.090Z,4.53
2019-01-13T17:05:14.741Z,4.47
2019-01-13T17:10:34.697Z,4.43
2019-01-13T17:15:52.188Z,4.38
2019-01-13T17:21:10.410Z,4.35
2019-01-13T17:26:29.815Z,4.19
2019-01-13T17:31:47.959Z,4.21
2019-01-13T17:37:06.673Z,4.25
2019-01-13T17:42:24.161Z,4.23
2019-01-13T17:47:43.551Z,4.10
2019-01-13T17:53:01.444Z,4.17
2019-01-13T17:58:19.343Z,4.17
2019-01-13T18:03:41.742Z,4.17
2019-01-13T18:09:00.308Z,4.21
2019-01-13T18:14:19.291Z,4.24
2019-01-13T18:19:36.866Z,4.14
2019-01-13T18:24:57.541Z,3.98
2019-01-13T18:30:16.692Z,3.79
2019-01-13T18:35:35.877Z,3.82
2019-01-13T18:40:54.968Z,3.71
2019-01-13T18:46:14.144Z,3.77
2019-01-13T18:51:31.815Z,3.85
2019-01-13T18:56:49.561Z,3.84
2019-01-13T19:02:08.058Z,3.87
2019-01-13T19:07:25.468Z,3.96
2019-01-13T19:12:43.397Z,4.07
2019-01-13T19:18:02.068Z,4.11
2019-01-13T19:23:21.485Z,4.08
2019-01-13T19:28:40.190Z,4.06
2019-01-13T19:33:57.945Z,4.09
2019-01-13T19:39:16.134Z,4.06
2019-01-13T19:44:34.658Z,4.14
2019-01-13T19:49:52.441Z,4.16
2019-01-13T19:55:11.412Z,4.17
2019-01-13T20:00:31.899Z,4.23
2019-01-13T20:05:49.635Z,4.31
2019-01-13T20:11:07.748Z,4.04
2019-01-13T20:16:28.274Z,4.15
2019-01-13T20:21:46.791Z,4.23
2019-01-13T20:27:05.429Z,4.28
2019-01-13T20:32:22.877Z,4.29
2019-01-13T20:37:40.897Z,4.29
2019-01-13T20:42:59.341Z,4.36
2019-01-13T20:48:19.863Z,4.30
2019-01-13T20:53:38.338Z,4.33
2019-01-13T20:58:56.668Z,4.36
2019-01-13T21:04:14.567Z,4.31
2019-01-13T21:09:32.033Z,4.35
2019-01-13T21:14:51.087Z,4.39
2019-01-13T21:20:09.370Z,4.35
2019-01-13T21:25:28.394Z,4.44
2019-01-13T21:30:47.166Z,4.48
2019-01-13T21:36:04.923Z,4.49
2019-01-13T21:41:23.597Z,4.55
2019-01-13T21:46:40.771Z,4.37
2019-01-13T21:51:58.076Z,4.45
2019-01-13T21:57:16.603Z,4.42
2019-01-13T22:02:36.637Z,4.39
2019-01-13T22:07:55.311Z,4.42
2019-01-13T22:13:12.504Z,4.46
2019-01-13T22:18:30.528Z,4.57
2019-01-13T22:23:48.275Z,4.30
2019-01-13T22:29:05.952Z,4.48
2019-01-13T22:34:23.492Z,4.58
2019-01-13T22:39:41.619Z,4.61
2019-01-13T22:44:59.330Z,4.70
2019-01-13T22:50:17.278Z,4.67
2019-01-13T22:55:35.130Z,4.74
2019-01-13T23:01:25.091Z,4.73
2019-01-13T23:06:42.134Z,4.79
2019-01-13T23:12:00.117Z,4.72
2019-01-13T23:17:17.927Z,4.75
2019-01-13T23:22:35.481Z,4.81
2019-01-13T23:27:54.225Z,4.93
2019-01-13T23:33:11.044Z,4.93
2019-01-13T23:38:28.522Z,4.96
2019-01-13T23:43:46.095Z,5.02
2019-01-13T23:49:04.424Z,4.93
2019-01-13T23:54:22.236Z,4.92
2019-01-13T23:59:40.986Z,5.01
